Amherst, New Hampshire
Current Conditions -  °F | °C
As of 11:51 PM on Saturday 22 Nov 2014 (Local Time) from KASH Reporting Station
Broken Clouds Broken Clouds  
Wind Chill: 37°   Ceiling: 3800
Heat Index: 40°   Visibility: 10mi
Dew Point: 19°   Wind: 5mph
Humidity: 43%   Direction: NA
Pressure: 30.05"   Gusts: NA
Location:  42.86°N, 71.63°W
Report Text: KASH 230451Z AUTO VRB04KT 10SM BKN038 BKN046 04/M07 A3005 RMK AO2 T00441072 BKN V SCT SLP430
Loading
Personal Weather Stations






























Interactive Weather Map New forecast layout! Learn more

10-Day Weather Forecast

Advertisements
Track Severe Weather on mobile